sensor_id;sensor_type;location;lat;lon;timestamp;pressure;altitude;pressure_sealevel;temperature;humidity
70198;BME280;57582;-34.876;138.628;2022-10-31T00:00:22;99127;;;15.62;70.45
70198;BME280;57582;-34.876;138.628;2022-10-31T00:03:22;99145;;;15.60;69.02
70198;BME280;57582;-34.876;138.628;2022-10-31T00:06:21;99146;;;15.45;68.82
70198;BME280;57582;-34.876;138.628;2022-10-31T00:09:21;99134;;;15.47;69.54
70198;BME280;57582;-34.876;138.628;2022-10-31T00:12:21;99132;;;15.52;68.84
70198;BME280;57582;-34.876;138.628;2022-10-31T00:15:21;99128;;;15.54;69.00
70198;BME280;57582;-34.876;138.628;2022-10-31T00:18:21;99134;;;15.59;68.73
70198;BME280;57582;-34.876;138.628;2022-10-31T00:21:21;99128;;;15.71;69.23
70198;BME280;57582;-34.876;138.628;2022-10-31T00:24:21;99122;;;15.77;68.60
70198;BME280;57582;-34.876;138.628;2022-10-31T00:27:21;99109;;;15.51;68.65
70198;BME280;57582;-34.876;138.628;2022-10-31T00:30:21;99118;;;15.55;69.88
70198;BME280;57582;-34.876;138.628;2022-10-31T00:33:21;99130;;;15.62;71.19
70198;BME280;57582;-34.876;138.628;2022-10-31T00:36:21;99123;;;15.51;72.64
70198;BME280;57582;-34.876;138.628;2022-10-31T00:39:21;99111;;;15.39;72.91
70198;BME280;57582;-34.876;138.628;2022-10-31T00:42:21;99093;;;15.49;72.60
70198;BME280;57582;-34.876;138.628;2022-10-31T00:45:21;99071;;;15.58;72.66
70198;BME280;57582;-34.876;138.628;2022-10-31T00:48:21;99057;;;15.69;73.37
70198;BME280;57582;-34.876;138.628;2022-10-31T00:51:22;99059;;;15.78;72.75
70198;BME280;57582;-34.876;138.628;2022-10-31T00:54:21;99055;;;15.94;72.36
70198;BME280;57582;-34.876;138.628;2022-10-31T00:57:21;99044;;;15.87;71.75
70198;BME280;57582;-34.876;138.628;2022-10-31T01:00:21;99050;;;15.94;72.54
70198;BME280;57582;-34.876;138.628;2022-10-31T01:03:23;99055;;;15.71;71.26
70198;BME280;57582;-34.876;138.628;2022-10-31T01:06:21;99066;;;15.34;70.92
70198;BME280;57582;-34.876;138.628;2022-10-31T01:09:21;99072;;;15.33;70.90
70198;BME280;57582;-34.876;138.628;2022-10-31T01:12:22;99065;;;14.94;72.74
70198;BME280;57582;-34.876;138.628;2022-10-31T01:15:22;99059;;;14.42;73.93
70198;BME280;57582;-34.876;138.628;2022-10-31T01:18:21;99064;;;14.56;74.41
70198;BME280;57582;-34.876;138.628;2022-10-31T01:21:22;99059;;;14.71;75.66
70198;BME280;57582;-34.876;138.628;2022-10-31T01:24:21;99051;;;14.82;76.31
70198;BME280;57582;-34.876;138.628;2022-10-31T01:27:21;99048;;;14.84;76.40
70198;BME280;57582;-34.876;138.628;2022-10-31T01:30:21;99049;;;15.02;76.30
70198;BME280;57582;-34.876;138.628;2022-10-31T01:33:21;99051;;;15.02;73.57
70198;BME280;57582;-34.876;138.628;2022-10-31T01:36:24;99042;;;14.97;73.37
70198;BME280;57582;-34.876;138.628;2022-10-31T01:39:23;99035;;;15.12;73.83
70198;BME280;57582;-34.876;138.628;2022-10-31T01:42:22;99033;;;15.13;73.40
70198;BME280;57582;-34.876;138.628;2022-10-31T01:45:21;99035;;;15.29;74.33
70198;BME280;57582;-34.876;138.628;2022-10-31T01:48:23;99026;;;15.38;74.30
70198;BME280;57582;-34.876;138.628;2022-10-31T01:51:23;99022;;;15.51;73.16
70198;BME280;57582;-34.876;138.628;2022-10-31T01:54:22;99017;;;15.51;71.24
70198;BME280;57582;-34.876;138.628;2022-10-31T01:57:21;99011;;;15.21;72.13
70198;BME280;57582;-34.876;138.628;2022-10-31T02:00:22;99006;;;15.28;73.05
70198;BME280;57582;-34.876;138.628;2022-10-31T02:03:22;99000;;;15.34;74.70
70198;BME280;57582;-34.876;138.628;2022-10-31T02:06:27;99006;;;15.34;74.07
70198;BME280;57582;-34.876;138.628;2022-10-31T02:09:21;99013;;;15.32;73.63
70198;BME280;57582;-34.876;138.628;2022-10-31T02:12:21;99002;;;15.40;75.26
70198;BME280;57582;-34.876;138.628;2022-10-31T02:15:22;98976;;;15.61;75.36
70198;BME280;57582;-34.876;138.628;2022-10-31T02:18:21;98997;;;15.46;73.40
70198;BME280;57582;-34.876;138.628;2022-10-31T02:21:24;98987;;;15.29;71.37
70198;BME280;57582;-34.876;138.628;2022-10-31T02:24:54;98990;;;15.16;72.04
70198;BME280;57582;-34.876;138.628;2022-10-31T02:30:21;98978;;;15.14;70.62
70198;BME280;57582;-34.876;138.628;2022-10-31T02:33:33;98979;;;15.13;69.50
70198;BME280;57582;-34.876;138.628;2022-10-31T02:39:24;98966;;;15.28;68.27
70198;BME280;57582;-34.876;138.628;2022-10-31T02:42:26;98964;;;15.27;68.61
70198;BME280;57582;-34.876;138.628;2022-10-31T02:45:25;98951;;;15.29;68.64
70198;BME280;57582;-34.876;138.628;2022-10-31T02:48:24;98942;;;15.45;68.44
70198;BME280;57582;-34.876;138.628;2022-10-31T02:51:22;98940;;;15.65;67.90
70198;BME280;57582;-34.876;138.628;2022-10-31T02:54:23;98932;;;15.80;67.25
70198;BME280;57582;-34.876;138.628;2022-10-31T02:57:29;98925;;;15.89;64.33
70198;BME280;57582;-34.876;138.628;2022-10-31T03:00:22;98928;;;15.99;64.09
70198;BME280;57582;-34.876;138.628;2022-10-31T03:09:26;98905;;;15.98;65.00
70198;BME280;57582;-34.876;138.628;2022-10-31T03:21:23;98912;;;16.38;62.85
70198;BME280;57582;-34.876;138.628;2022-10-31T03:24:23;98905;;;16.07;62.98
70198;BME280;57582;-34.876;138.628;2022-10-31T03:27:24;98906;;;16.09;62.31
70198;BME280;57582;-34.876;138.628;2022-10-31T03:30:21;98889;;;16.17;62.05
70198;BME280;57582;-34.876;138.628;2022-10-31T03:33:23;98887;;;16.34;62.80
70198;BME280;57582;-34.876;138.628;2022-10-31T03:36:22;98878;;;16.52;61.96
70198;BME280;57582;-34.876;138.628;2022-10-31T03:39:22;98881;;;16.66;62.58
70198;BME280;57582;-34.876;138.628;2022-10-31T03:42:22;98878;;;16.64;62.16
70198;BME280;57582;-34.876;138.628;2022-10-31T03:45:25;98882;;;16.54;61.67
70198;BME280;57582;-34.876;138.628;2022-10-31T03:48:22;98880;;;16.40;61.95
70198;BME280;57582;-34.876;138.628;2022-10-31T03:57:24;98891;;;16.48;60.43
70198;BME280;57582;-34.876;138.628;2022-10-31T04:00:22;98903;;;16.44;60.32
70198;BME280;57582;-34.876;138.628;2022-10-31T04:03:24;98896;;;16.37;59.86
70198;BME280;57582;-34.876;138.628;2022-10-31T04:06:21;98892;;;16.27;60.02
70198;BME280;57582;-34.876;138.628;2022-10-31T04:09:22;98888;;;16.31;60.45
70198;BME280;57582;-34.876;138.628;2022-10-31T04:12:22;98866;;;16.33;61.05
70198;BME280;57582;-34.876;138.628;2022-10-31T04:15:22;98850;;;16.43;60.02
70198;BME280;57582;-34.876;138.628;2022-10-31T04:18:23;98837;;;16.50;61.05
70198;BME280;57582;-34.876;138.628;2022-10-31T04:21:29;98844;;;16.68;59.78
70198;BME280;57582;-34.876;138.628;2022-10-31T04:24:22;98832;;;16.66;60.51
70198;BME280;57582;-34.876;138.628;2022-10-31T04:27:22;98826;;;16.72;59.77
70198;BME280;57582;-34.876;138.628;2022-10-31T04:30:21;98818;;;16.80;59.65
70198;BME280;57582;-34.876;138.628;2022-10-31T04:33:21;98813;;;16.87;59.14
70198;BME280;57582;-34.876;138.628;2022-10-31T04:36:22;98821;;;16.77;58.68
70198;BME280;57582;-34.876;138.628;2022-10-31T04:39:22;98826;;;16.73;59.13
70198;BME280;57582;-34.876;138.628;2022-10-31T04:42:21;98813;;;16.57;61.46
70198;BME280;57582;-34.876;138.628;2022-10-31T04:45:21;98797;;;16.52;62.53
70198;BME280;57582;-34.876;138.628;2022-10-31T04:48:22;98809;;;16.35;62.35
70198;BME280;57582;-34.876;138.628;2022-10-31T04:51:22;98808;;;16.12;63.66
70198;BME280;57582;-34.876;138.628;2022-10-31T04:54:21;98823;;;15.73;65.65
70198;BME280;57582;-34.876;138.628;2022-10-31T04:57:21;98819;;;15.59;65.82
70198;BME280;57582;-34.876;138.628;2022-10-31T05:00:22;98835;;;15.35;68.38
70198;BME280;57582;-34.876;138.628;2022-10-31T05:03:22;98819;;;15.09;69.33
70198;BME280;57582;-34.876;138.628;2022-10-31T05:06:21;98826;;;15.10;70.56
70198;BME280;57582;-34.876;138.628;2022-10-31T05:09:21;98811;;;15.09;70.02
70198;BME280;57582;-34.876;138.628;2022-10-31T05:12:22;98814;;;15.03;70.05
70198;BME280;57582;-34.876;138.628;2022-10-31T05:15:22;98828;;;14.95;69.97
70198;BME280;57582;-34.876;138.628;2022-10-31T05:18:21;98813;;;14.86;71.30
70198;BME280;57582;-34.876;138.628;2022-10-31T05:21:21;98812;;;14.90;70.33
70198;BME280;57582;-34.876;138.628;2022-10-31T05:24:22;98809;;;14.87;69.77
70198;BME280;57582;-34.876;138.628;2022-10-31T05:27:22;98809;;;14.78;68.44
70198;BME280;57582;-34.876;138.628;2022-10-31T05:30:24;98806;;;14.68;69.09
70198;BME280;57582;-34.876;138.628;2022-10-31T05:33:22;98806;;;14.71;69.24
70198;BME280;57582;-34.876;138.628;2022-10-31T05:36:22;98792;;;14.74;69.84
70198;BME280;57582;-34.876;138.628;2022-10-31T05:39:22;98805;;;14.91;70.33
70198;BME280;57582;-34.876;138.628;2022-10-31T05:42:21;98797;;;15.05;69.70
70198;BME280;57582;-34.876;138.628;2022-10-31T05:45:22;98790;;;14.40;68.69
70198;BME280;57582;-34.876;138.628;2022-10-31T05:48:22;98787;;;14.57;68.88
70198;BME280;57582;-34.876;138.628;2022-10-31T05:51:22;98780;;;14.70;69.24
70198;BME280;57582;-34.876;138.628;2022-10-31T05:54:22;98786;;;14.87;68.67
70198;BME280;57582;-34.876;138.628;2022-10-31T05:57:22;98780;;;14.99;67.83
70198;BME280;57582;-34.876;138.628;2022-10-31T06:00:22;98774;;;15.12;67.46
70198;BME280;57582;-34.876;138.628;2022-10-31T06:03:22;98776;;;15.26;67.49
70198;BME280;57582;-34.876;138.628;2022-10-31T06:06:22;98761;;;15.19;68.60
70198;BME280;57582;-34.876;138.628;2022-10-31T06:09:22;98766;;;15.31;68.62
70198;BME280;57582;-34.876;138.628;2022-10-31T06:12:22;98766;;;15.25;67.37
70198;BME280;57582;-34.876;138.628;2022-10-31T06:15:22;98763;;;15.21;67.91
70198;BME280;57582;-34.876;138.628;2022-10-31T06:18:22;98765;;;15.29;66.70
70198;BME280;57582;-34.876;138.628;2022-10-31T06:21:22;98762;;;15.34;66.14
70198;BME280;57582;-34.876;138.628;2022-10-31T06:24:22;98755;;;15.30;66.93
70198;BME280;57582;-34.876;138.628;2022-10-31T06:27:22;98754;;;15.34;66.79
70198;BME280;57582;-34.876;138.628;2022-10-31T06:30:23;98759;;;15.19;64.62
70198;BME280;57582;-34.876;138.628;2022-10-31T06:33:22;98769;;;14.98;64.18
70198;BME280;57582;-34.876;138.628;2022-10-31T06:36:22;98786;;;14.77;64.61
70198;BME280;57582;-34.876;138.628;2022-10-31T06:39:22;98788;;;14.56;66.72
70198;BME280;57582;-34.876;138.628;2022-10-31T06:42:22;98787;;;14.35;67.15
70198;BME280;57582;-34.876;138.628;2022-10-31T06:45:22;98797;;;14.20;67.14
70198;BME280;57582;-34.876;138.628;2022-10-31T06:48:22;98801;;;13.92;68.09
70198;BME280;57582;-34.876;138.628;2022-10-31T06:51:22;98811;;;13.75;69.83
70198;BME280;57582;-34.876;138.628;2022-10-31T06:54:22;98816;;;13.68;69.80
70198;BME280;57582;-34.876;138.628;2022-10-31T06:57:22;98810;;;13.58;69.44
70198;BME280;57582;-34.876;138.628;2022-10-31T07:00:22;98820;;;13.58;72.17
70198;BME280;57582;-34.876;138.628;2022-10-31T07:03:22;98837;;;13.35;74.46
70198;BME280;57582;-34.876;138.628;2022-10-31T07:06:22;98839;;;13.23;74.50
70198;BME280;57582;-34.876;138.628;2022-10-31T07:09:22;98850;;;13.03;76.21
70198;BME280;57582;-34.876;138.628;2022-10-31T07:12:22;98863;;;12.78;76.31
70198;BME280;57582;-34.876;138.628;2022-10-31T07:15:22;98876;;;12.81;77.24
70198;BME280;57582;-34.876;138.628;2022-10-31T07:18:22;98897;;;12.46;74.33
70198;BME280;57582;-34.876;138.628;2022-10-31T07:21:22;98919;;;12.23;73.88
70198;BME280;57582;-34.876;138.628;2022-10-31T07:24:22;98923;;;12.19;73.62
70198;BME280;57582;-34.876;138.628;2022-10-31T07:27:22;98934;;;12.26;73.94
70198;BME280;57582;-34.876;138.628;2022-10-31T07:30:22;98931;;;12.30;72.27
70198;BME280;57582;-34.876;138.628;2022-10-31T07:33:22;98931;;;12.34;71.33
70198;BME280;57582;-34.876;138.628;2022-10-31T07:36:22;98937;;;12.54;70.75
70198;BME280;57582;-34.876;138.628;2022-10-31T07:39:22;98952;;;12.65;69.36
70198;BME280;57582;-34.876;138.628;2022-10-31T07:42:22;98939;;;12.65;69.03
70198;BME280;57582;-34.876;138.628;2022-10-31T07:45:22;98943;;;12.64;69.13
70198;BME280;57582;-34.876;138.628;2022-10-31T07:48:23;98948;;;12.60;69.52
70198;BME280;57582;-34.876;138.628;2022-10-31T07:51:23;98964;;;12.54;69.98
70198;BME280;57582;-34.876;138.628;2022-10-31T07:54:22;98971;;;12.45;69.79
70198;BME280;57582;-34.876;138.628;2022-10-31T07:57:22;98971;;;12.44;70.30
70198;BME280;57582;-34.876;138.628;2022-10-31T08:00:22;98974;;;12.49;69.74
70198;BME280;57582;-34.876;138.628;2022-10-31T08:03:22;98976;;;12.47;68.28
70198;BME280;57582;-34.876;138.628;2022-10-31T08:06:22;98979;;;12.50;67.52
70198;BME280;57582;-34.876;138.628;2022-10-31T08:09:22;98987;;;12.58;67.74
70198;BME280;57582;-34.876;138.628;2022-10-31T08:12:23;98991;;;12.60;67.39
70198;BME280;57582;-34.876;138.628;2022-10-31T08:15:22;98990;;;12.70;66.61
70198;BME280;57582;-34.876;138.628;2022-10-31T08:18:22;98999;;;12.69;67.21
70198;BME280;57582;-34.876;138.628;2022-10-31T08:21:22;99006;;;12.56;70.09
70198;BME280;57582;-34.876;138.628;2022-10-31T08:24:23;99016;;;12.43;72.03
70198;BME280;57582;-34.876;138.628;2022-10-31T08:27:22;99014;;;12.42;72.22
70198;BME280;57582;-34.876;138.628;2022-10-31T08:30:23;99000;;;12.28;72.24
70198;BME280;57582;-34.876;138.628;2022-10-31T08:33:22;99006;;;12.47;72.50
70198;BME280;57582;-34.876;138.628;2022-10-31T08:36:22;99016;;;12.63;71.64
70198;BME280;57582;-34.876;138.628;2022-10-31T08:39:22;98993;;;12.88;70.39
70198;BME280;57582;-34.876;138.628;2022-10-31T08:42:22;99001;;;13.06;69.68
70198;BME280;57582;-34.876;138.628;2022-10-31T08:45:22;99009;;;13.16;68.95
70198;BME280;57582;-34.876;138.628;2022-10-31T08:48:22;99019;;;13.36;67.95
70198;BME280;57582;-34.876;138.628;2022-10-31T08:51:22;99023;;;13.54;67.73
70198;BME280;57582;-34.876;138.628;2022-10-31T08:54:22;99023;;;13.73;67.96
70198;BME280;57582;-34.876;138.628;2022-10-31T08:57:22;99028;;;13.87;67.81
70198;BME280;57582;-34.876;138.628;2022-10-31T09:00:23;99022;;;14.03;67.53
70198;BME280;57582;-34.876;138.628;2022-10-31T09:03:23;99044;;;14.19;66.29
70198;BME280;57582;-34.876;138.628;2022-10-31T09:06:22;99046;;;14.26;65.71
70198;BME280;57582;-34.876;138.628;2022-10-31T09:09:22;99050;;;14.15;66.95
70198;BME280;57582;-34.876;138.628;2022-10-31T09:12:22;99048;;;13.91;62.36
70198;BME280;57582;-34.876;138.628;2022-10-31T09:15:22;99044;;;13.95;64.06
70198;BME280;57582;-34.876;138.628;2022-10-31T09:18:22;99053;;;13.96;61.47
70198;BME280;57582;-34.876;138.628;2022-10-31T09:21:22;99047;;;13.94;60.06
70198;BME280;57582;-34.876;138.628;2022-10-31T09:24:22;99044;;;13.92;59.93
70198;BME280;57582;-34.876;138.628;2022-10-31T09:27:22;99050;;;13.76;60.22
70198;BME280;57582;-34.876;138.628;2022-10-31T09:30:22;99051;;;13.65;59.87
70198;BME280;57582;-34.876;138.628;2022-10-31T09:33:22;99060;;;13.69;60.71
70198;BME280;57582;-34.876;138.628;2022-10-31T09:36:22;99061;;;13.69;60.27
70198;BME280;57582;-34.876;138.628;2022-10-31T09:39:23;99061;;;13.84;60.06
70198;BME280;57582;-34.876;138.628;2022-10-31T09:45:26;99052;;;13.77;61.31
70198;BME280;57582;-34.876;138.628;2022-10-31T09:51:24;99051;;;13.96;61.01
70198;BME280;57582;-34.876;138.628;2022-10-31T09:54:38;99053;;;14.18;60.42
70198;BME280;57582;-34.876;138.628;2022-10-31T09:57:27;99054;;;14.14;60.43
70198;BME280;57582;-34.876;138.628;2022-10-31T10:00:23;99050;;;13.73;58.11
70198;BME280;57582;-34.876;138.628;2022-10-31T10:03:27;99067;;;13.53;57.71
70198;BME280;57582;-34.876;138.628;2022-10-31T10:06:23;99083;;;13.30;58.47
70198;BME280;57582;-34.876;138.628;2022-10-31T10:09:24;99083;;;13.22;58.99
70198;BME280;57582;-34.876;138.628;2022-10-31T10:12:28;99082;;;13.21;59.43
70198;BME280;57582;-34.876;138.628;2022-10-31T10:22:25;99089;;;13.47;59.79
70198;BME280;57582;-34.876;138.628;2022-10-31T10:30:27;99105;;;13.19;59.34
70198;BME280;57582;-34.876;138.628;2022-10-31T10:33:24;99113;;;13.19;58.88
70198;BME280;57582;-34.876;138.628;2022-10-31T10:39:25;99113;;;13.14;58.43
70198;BME280;57582;-34.876;138.628;2022-10-31T10:42:23;99113;;;13.12;58.11
70198;BME280;57582;-34.876;138.628;2022-10-31T10:45:22;99117;;;12.91;59.03
70198;BME280;57582;-34.876;138.628;2022-10-31T10:48:29;99108;;;13.07;59.04
70198;BME280;57582;-34.876;138.628;2022-10-31T10:51:23;99108;;;13.19;58.58
70198;BME280;57582;-34.876;138.628;2022-10-31T11:00:24;99096;;;13.16;58.31
70198;BME280;57582;-34.876;138.628;2022-10-31T11:03:22;99097;;;13.01;57.94
70198;BME280;57582;-34.876;138.628;2022-10-31T11:06:22;99098;;;12.94;57.38
70198;BME280;57582;-34.876;138.628;2022-10-31T11:09:22;99098;;;12.98;56.90
70198;BME280;57582;-34.876;138.628;2022-10-31T11:12:25;99099;;;12.96;57.17
70198;BME280;57582;-34.876;138.628;2022-10-31T11:15:23;99094;;;13.04;57.87
70198;BME280;57582;-34.876;138.628;2022-10-31T11:18:24;99086;;;12.86;58.54
70198;BME280;57582;-34.876;138.628;2022-10-31T11:21:29;99079;;;12.91;59.44
70198;BME280;57582;-34.876;138.628;2022-10-31T11:24:23;99090;;;13.00;59.19
70198;BME280;57582;-34.876;138.628;2022-10-31T11:27:23;99095;;;12.98;58.85
70198;BME280;57582;-34.876;138.628;2022-10-31T11:30:22;99088;;;12.88;59.56
70198;BME280;57582;-34.876;138.628;2022-10-31T11:36:27;99094;;;13.12;62.44
70198;BME280;57582;-34.876;138.628;2022-10-31T11:39:23;99090;;;13.21;61.68
70198;BME280;57582;-34.876;138.628;2022-10-31T11:42:24;99076;;;13.42;61.16
70198;BME280;57582;-34.876;138.628;2022-10-31T11:48:23;99087;;;13.00;62.26
70198;BME280;57582;-34.876;138.628;2022-10-31T11:51:24;99097;;;13.19;62.63
70198;BME280;57582;-34.876;138.628;2022-10-31T11:54:25;99090;;;13.23;59.87
70198;BME280;57582;-34.876;138.628;2022-10-31T12:00:25;99089;;;13.53;59.60
70198;BME280;57582;-34.876;138.628;2022-10-31T12:06:25;99071;;;13.64;59.02
70198;BME280;57582;-34.876;138.628;2022-10-31T12:12:28;99065;;;13.73;58.61
70198;BME280;57582;-34.876;138.628;2022-10-31T12:15:31;99060;;;13.82;59.28
70198;BME280;57582;-34.876;138.628;2022-10-31T12:24:27;99042;;;14.11;58.17
70198;BME280;57582;-34.876;138.628;2022-10-31T12:39:25;99000;;;14.26;58.17
70198;BME280;57582;-34.876;138.628;2022-10-31T12:42:41;99000;;;14.14;58.25
70198;BME280;57582;-34.876;138.628;2022-10-31T12:48:27;99004;;;14.05;59.04
70198;BME280;57582;-34.876;138.628;2022-10-31T12:57:27;98997;;;13.58;61.23
70198;BME280;57582;-34.876;138.628;2022-10-31T13:00:23;98986;;;13.33;61.05
70198;BME280;57582;-34.876;138.628;2022-10-31T13:06:23;98962;;;13.27;61.75
70198;BME280;57582;-34.876;138.628;2022-10-31T13:09:26;98954;;;13.29;61.90
70198;BME280;57582;-34.876;138.628;2022-10-31T13:12:22;98950;;;13.35;62.65
70198;BME280;57582;-34.876;138.628;2022-10-31T13:15:24;98944;;;13.36;61.67
70198;BME280;57582;-34.876;138.628;2022-10-31T13:18:31;98947;;;13.33;61.83
70198;BME280;57582;-34.876;138.628;2022-10-31T13:21:26;98938;;;13.31;63.60
70198;BME280;57582;-34.876;138.628;2022-10-31T13:24:27;98941;;;13.29;63.88
70198;BME280;57582;-34.876;138.628;2022-10-31T13:27:24;98939;;;13.38;62.83
70198;BME280;57582;-34.876;138.628;2022-10-31T13:30:23;98934;;;13.25;60.38
70198;BME280;57582;-34.876;138.628;2022-10-31T13:33:25;98926;;;13.27;60.23
70198;BME280;57582;-34.876;138.628;2022-10-31T13:36:30;98930;;;13.19;60.55
70198;BME280;57582;-34.876;138.628;2022-10-31T13:45:23;98934;;;12.97;62.04
70198;BME280;57582;-34.876;138.628;2022-10-31T13:51:25;98925;;;12.60;64.07
70198;BME280;57582;-34.876;138.628;2022-10-31T13:54:33;98923;;;12.62;64.00
70198;BME280;57582;-34.876;138.628;2022-10-31T14:00:24;98910;;;12.77;64.14
70198;BME280;57582;-34.876;138.628;2022-10-31T14:03:23;98918;;;12.88;64.24
70198;BME280;57582;-34.876;138.628;2022-10-31T14:06:22;98911;;;12.91;64.77
70198;BME280;57582;-34.876;138.628;2022-10-31T14:15:26;98912;;;12.36;68.78
70198;BME280;57582;-34.876;138.628;2022-10-31T14:18:23;98917;;;12.12;70.04
70198;BME280;57582;-34.876;138.628;2022-10-31T14:30:23;98905;;;12.28;69.12
70198;BME280;57582;-34.876;138.628;2022-10-31T14:33:24;98898;;;12.45;67.93
70198;BME280;57582;-34.876;138.628;2022-10-31T14:36:26;98901;;;12.22;67.99
70198;BME280;57582;-34.876;138.628;2022-10-31T14:39:35;98891;;;12.30;68.04
70198;BME280;57582;-34.876;138.628;2022-10-31T14:45:28;98887;;;12.66;66.19
70198;BME280;57582;-34.876;138.628;2022-10-31T14:51:25;98875;;;12.75;66.04
70198;BME280;57582;-34.876;138.628;2022-10-31T14:54:28;98875;;;12.85;65.91
70198;BME280;57582;-34.876;138.628;2022-10-31T14:57:24;98793;;;12.20;66.42
70198;BME280;57582;-34.876;138.628;2022-10-31T15:00:23;98869;;;12.60;66.13
70198;BME280;57582;-34.876;138.628;2022-10-31T15:03:29;98860;;;12.23;66.70
70198;BME280;57582;-34.876;138.628;2022-10-31T15:06:22;98858;;;12.28;66.55
70198;BME280;57582;-34.876;138.628;2022-10-31T15:15:24;98834;;;12.14;67.03
70198;BME280;57582;-34.876;138.628;2022-10-31T15:18:27;98838;;;12.26;66.66
70198;BME280;57582;-34.876;138.628;2022-10-31T15:21:23;98849;;;11.74;66.53
70198;BME280;57582;-34.876;138.628;2022-10-31T15:24:29;98840;;;11.42;66.52
70198;BME280;57582;-34.876;138.628;2022-10-31T15:27:23;98845;;;11.37;66.75
70198;BME280;57582;-34.876;138.628;2022-10-31T15:30:24;98837;;;11.14;70.11
70198;BME280;57582;-34.876;138.628;2022-10-31T15:33:24;98836;;;11.30;69.53
70198;BME280;57582;-34.876;138.628;2022-10-31T15:36:23;98826;;;11.25;69.19
70198;BME280;57582;-34.876;138.628;2022-10-31T15:39:23;98823;;;11.28;69.25
70198;BME280;57582;-34.876;138.628;2022-10-31T15:45:23;98809;;;11.73;68.65
70198;BME280;57582;-34.876;138.628;2022-10-31T15:48:23;98804;;;11.96;68.26
70198;BME280;57582;-34.876;138.628;2022-10-31T15:51:27;98807;;;12.14;66.88
70198;BME280;57582;-34.876;138.628;2022-10-31T15:54:22;98804;;;12.16;67.58
70198;BME280;57582;-34.876;138.628;2022-10-31T15:57:23;98804;;;12.07;67.45
70198;BME280;57582;-34.876;138.628;2022-10-31T16:03:25;98808;;;12.48;66.99
70198;BME280;57582;-34.876;138.628;2022-10-31T16:06:22;98807;;;12.65;66.16
70198;BME280;57582;-34.876;138.628;2022-10-31T16:09:23;98809;;;12.76;65.38
70198;BME280;57582;-34.876;138.628;2022-10-31T16:12:24;98802;;;12.71;65.12
70198;BME280;57582;-34.876;138.628;2022-10-31T16:15:23;98794;;;12.63;65.57
70198;BME280;57582;-34.876;138.628;2022-10-31T16:18:23;98793;;;12.60;65.46
70198;BME280;57582;-34.876;138.628;2022-10-31T16:21:24;98786;;;12.51;65.71
70198;BME280;57582;-34.876;138.628;2022-10-31T16:24:28;98782;;;12.53;65.36
70198;BME280;57582;-34.876;138.628;2022-10-31T16:27:27;98793;;;12.63;65.73
70198;BME280;57582;-34.876;138.628;2022-10-31T16:30:39;98777;;;12.50;65.75
70198;BME280;57582;-34.876;138.628;2022-10-31T16:33:26;98778;;;12.43;65.29
70198;BME280;57582;-34.876;138.628;2022-10-31T16:39:23;98776;;;12.45;65.85
70198;BME280;57582;-34.876;138.628;2022-10-31T16:42:22;98776;;;12.44;66.34
70198;BME280;57582;-34.876;138.628;2022-10-31T16:45:23;98781;;;12.44;66.72
70198;BME280;57582;-34.876;138.628;2022-10-31T16:48:23;98776;;;12.35;67.04
70198;BME280;57582;-34.876;138.628;2022-10-31T16:51:23;98768;;;12.30;67.16
70198;BME280;57582;-34.876;138.628;2022-10-31T16:54:22;98764;;;12.37;67.34
70198;BME280;57582;-34.876;138.628;2022-10-31T16:57:25;98768;;;12.25;67.28
70198;BME280;57582;-34.876;138.628;2022-10-31T17:00:24;98763;;;12.07;67.74
70198;BME280;57582;-34.876;138.628;2022-10-31T17:03:23;98766;;;11.84;68.99
70198;BME280;57582;-34.876;138.628;2022-10-31T17:06:23;98766;;;11.69;69.57
70198;BME280;57582;-34.876;138.628;2022-10-31T17:09:22;98770;;;11.57;70.66
70198;BME280;57582;-34.876;138.628;2022-10-31T17:12:23;98769;;;11.78;70.36
70198;BME280;57582;-34.876;138.628;2022-10-31T17:15:24;98762;;;11.63;69.38
70198;BME280;57582;-34.876;138.628;2022-10-31T17:18:23;98762;;;11.62;69.80
70198;BME280;57582;-34.876;138.628;2022-10-31T17:21:23;98766;;;11.56;70.37
70198;BME280;57582;-34.876;138.628;2022-10-31T17:24:23;98767;;;11.63;70.08
70198;BME280;57582;-34.876;138.628;2022-10-31T17:27:24;98762;;;11.70;69.29
70198;BME280;57582;-34.876;138.628;2022-10-31T17:30:23;98764;;;11.88;69.05
70198;BME280;57582;-34.876;138.628;2022-10-31T17:33:23;98760;;;11.92;67.49
70198;BME280;57582;-34.876;138.628;2022-10-31T17:36:23;98748;;;11.85;66.62
70198;BME280;57582;-34.876;138.628;2022-10-31T17:39:23;98747;;;11.81;66.81
70198;BME280;57582;-34.876;138.628;2022-10-31T17:42:23;98742;;;11.86;65.63
70198;BME280;57582;-34.876;138.628;2022-10-31T17:45:23;98738;;;11.72;66.24
70198;BME280;57582;-34.876;138.628;2022-10-31T17:48:23;98744;;;11.76;66.74
70198;BME280;57582;-34.876;138.628;2022-10-31T17:51:23;98736;;;11.81;66.62
70198;BME280;57582;-34.876;138.628;2022-10-31T17:54:23;98734;;;11.81;67.37
70198;BME280;57582;-34.876;138.628;2022-10-31T17:57:23;98736;;;11.72;66.07
70198;BME280;57582;-34.876;138.628;2022-10-31T18:00:23;98745;;;11.75;66.28
70198;BME280;57582;-34.876;138.628;2022-10-31T18:03:23;98752;;;11.82;66.31
70198;BME280;57582;-34.876;138.628;2022-10-31T18:06:23;98746;;;11.86;66.13
70198;BME280;57582;-34.876;138.628;2022-10-31T18:09:23;98741;;;11.90;65.97
70198;BME280;57582;-34.876;138.628;2022-10-31T18:12:23;98747;;;11.94;65.99
70198;BME280;57582;-34.876;138.628;2022-10-31T18:15:24;98736;;;11.94;66.22
70198;BME280;57582;-34.876;138.628;2022-10-31T18:18:23;98743;;;11.96;66.82